createdAt,value
2022-09-15T05:19:38.909Z,97716.78
2022-09-15T05:21:11.253Z,97715.81
2022-09-15T05:22:42.955Z,97707.22
2022-09-15T05:24:14.556Z,97699.06
2022-09-15T05:25:54.621Z,97700.13
2022-09-15T05:27:26.200Z,97698.25
2022-09-15T05:28:57.854Z,97703.25
2022-09-15T05:30:38.022Z,97700.41
2022-09-15T05:32:10.429Z,97711.72
2022-09-15T05:33:41.980Z,97709.16
2022-09-15T05:35:13.640Z,97703.69
2022-09-15T05:36:45.187Z,97701.16
2022-09-15T05:38:16.779Z,97719.16
2022-09-15T05:39:48.530Z,97713.50
2022-09-15T05:41:20.134Z,97707.00
2022-09-15T05:42:51.694Z,97723.47
2022-09-15T05:44:23.234Z,97722.47
2022-09-15T05:45:54.819Z,97716.09
2022-09-15T05:47:26.461Z,97718.97
2022-09-15T05:48:58.315Z,97718.47
2022-09-15T05:50:30.218Z,97711.84
2022-09-15T05:52:02.003Z,97709.38
2022-09-15T05:53:34.417Z,97710.81
2022-09-15T05:55:06.101Z,97705.44
2022-09-15T05:56:37.706Z,97709.56
2022-09-15T05:58:09.250Z,97709.56
2022-09-15T05:59:40.871Z,97710.31
2022-09-15T06:01:20.364Z,97708.34
2022-09-15T06:02:52.051Z,97719.81
2022-09-15T06:04:23.611Z,97719.81
2022-09-15T06:06:02.135Z,97722.50
2022-09-15T06:07:33.781Z,97719.81
2022-09-15T06:09:05.599Z,97720.75
2022-09-15T06:10:37.301Z,97715.38
2022-09-15T06:12:08.863Z,97726.34
2022-09-15T06:13:40.453Z,97724.41
2022-09-15T06:15:12.030Z,97733.41
2022-09-15T06:16:43.609Z,97727.81
2022-09-15T06:18:15.167Z,97737.34
2022-09-15T06:19:46.731Z,97737.34
2022-09-15T06:21:23.161Z,97735.88
2022-09-15T06:22:54.703Z,97728.53
2022-09-15T06:24:26.258Z,97724.41
2022-09-15T06:26:04.378Z,97722.44
2022-09-15T06:27:35.946Z,97725.13
2022-09-15T06:29:07.502Z,97741.03
2022-09-15T06:30:39.613Z,97725.41
2022-09-15T06:32:11.258Z,97733.47
2022-09-15T06:33:50.124Z,97731.53
2022-09-15T06:35:21.683Z,97741.53
2022-09-15T06:36:53.267Z,97744.22
2022-09-15T06:38:24.818Z,97737.41
2022-09-15T06:39:56.527Z,97736.69
2022-09-15T06:41:28.097Z,97736.69
2022-09-15T06:42:59.736Z,97737.91
2022-09-15T06:44:31.293Z,97732.53
2022-09-15T06:46:03.703Z,97746.47
2022-09-15T06:47:35.296Z,97750.41
2022-09-15T06:49:06.858Z,97757.75
2022-09-15T06:50:38.407Z,97761.16
2022-09-15T06:52:10.004Z,97760.69
2022-09-15T06:53:41.603Z,97763.84
2022-09-15T06:55:13.201Z,97757.00
2022-09-15T06:56:44.890Z,97753.59
2022-09-15T06:58:16.493Z,97762.38
2022-09-15T06:59:48.096Z,97763.13
2022-09-15T07:01:24.041Z,97761.16
2022-09-15T07:02:55.731Z,97767.25
2022-09-15T07:04:27.308Z,97765.81
2022-09-15T07:05:58.864Z,97781.94
2022-09-15T07:07:30.524Z,97788.03
2022-09-15T07:09:02.259Z,97779.03
2022-09-15T07:10:33.831Z,97786.56
2022-09-15T07:12:05.585Z,97787.31
2022-09-15T07:13:37.593Z,97778.00
2022-09-15T07:15:09.782Z,97770.16
2022-09-15T07:16:41.439Z,97767.47
2022-09-15T07:18:13.060Z,97768.22
2022-09-15T07:19:44.678Z,97765.72
2022-09-15T07:21:19.647Z,97754.97
2022-09-15T07:22:51.275Z,97763.28
2022-09-15T07:24:22.980Z,97761.53
2022-09-15T07:26:24.923Z,97762.47
2022-09-15T07:27:56.470Z,97759.25
2022-09-15T07:29:28.052Z,97747.28
2022-09-15T07:30:59.615Z,97750.19
2022-09-15T07:32:31.163Z,97747.72
2022-09-15T07:34:02.904Z,97747.22
2022-09-15T07:35:34.465Z,97730.56
2022-09-15T07:37:06.017Z,97746.91
2022-09-15T07:38:44.859Z,97724.69
2022-09-15T07:40:16.498Z,97733.72
2022-09-15T07:41:48.138Z,97745.41
2022-09-15T07:43:19.689Z,97735.38
2022-09-15T07:44:51.736Z,97742.44
2022-09-15T07:46:24.206Z,97733.63
2022-09-15T07:47:55.753Z,97748.22
2022-09-15T07:49:27.482Z,97749.91
2022-09-15T07:50:59.030Z,97736.44
2022-09-15T07:52:30.593Z,97743.50
2022-09-15T07:54:02.189Z,97748.41
2022-09-15T07:55:33.766Z,97745.22
2022-09-15T07:57:05.430Z,97744.19
2022-09-15T07:58:36.974Z,97745.63
2022-09-15T08:00:08.933Z,97745.13
2022-09-15T08:01:46.481Z,97753.94
2022-09-15T08:03:18.085Z,97764.69
2022-09-15T08:04:49.673Z,97745.13
2022-09-15T08:06:22.596Z,97759.81
2022-09-15T08:07:57.296Z,97760.53
2022-09-15T08:09:28.829Z,97747.81
2022-09-15T08:11:00.491Z,97746.56
2022-09-15T08:12:32.068Z,97748.03
2022-09-15T08:14:03.613Z,97759.72
2022-09-15T08:15:36.506Z,97757.56
2022-09-15T08:17:11.435Z,97763.34
2022-09-15T08:18:43.430Z,97756.84
2022-09-15T08:20:15.038Z,97761.41
2022-09-15T08:21:46.645Z,97765.75
2022-09-15T08:23:18.195Z,97764.72
2022-09-15T08:24:49.797Z,97764.72
2022-09-15T08:26:21.492Z,97757.38
2022-09-15T08:27:53.908Z,97780.16
2022-09-15T08:29:25.470Z,97762.56
2022-09-15T08:31:15.004Z,97758.94
2022-09-15T08:32:46.619Z,97761.84
2022-09-15T08:34:18.236Z,97755.97
2022-09-15T08:35:50.052Z,97766.47
2022-09-15T08:37:21.630Z,97750.56
2022-09-15T08:38:53.175Z,97750.78
2022-09-15T08:40:29.046Z,97755.22
2022-09-15T08:42:00.681Z,97756.66
2022-09-15T08:43:36.997Z,97749.13
2022-09-15T08:45:17.740Z,97738.63
2022-09-15T08:47:13.297Z,97733.47
2022-09-15T08:49:02.918Z,97725.19
2022-09-15T08:50:36.906Z,97735.88
2022-09-15T08:52:13.980Z,97728.72
2022-09-15T08:53:51.863Z,97727.00
2022-09-15T08:55:48.889Z,97721.28
2022-09-15T08:57:20.654Z,97718.09
2022-09-15T08:58:52.208Z,97725.34
2022-09-15T09:00:23.756Z,97726.81
2022-09-15T09:02:05.455Z,97719.69
2022-09-15T09:03:49.363Z,97720.59
2022-09-15T09:05:43.578Z,97714.00
2022-09-15T09:07:28.286Z,97719.59
2022-09-15T09:09:34.817Z,97720.31
2022-09-15T09:11:31.180Z,97712.97
2022-09-15T09:13:13.080Z,97714.94
2022-09-15T09:14:54.123Z,97707.59
2022-09-15T09:16:48.381Z,97713.94
2022-09-15T09:18:45.322Z,97718.06
2022-09-15T09:20:23.292Z,97711.25
2022-09-15T09:21:57.522Z,97720.78
2022-09-15T09:23:29.567Z,97729.03
2022-09-15T09:25:08.547Z,97719.94
2022-09-15T09:26:43.547Z,97716.03
2022-09-15T09:28:30.538Z,97713.13
2022-09-15T09:30:18.977Z,97712.59
2022-09-15T09:31:51.114Z,97711.13
2022-09-15T09:33:25.591Z,97709.91
2022-09-15T09:35:16.298Z,97713.81
2022-09-15T09:36:52.759Z,97719.22
2022-09-15T09:38:35.365Z,97714.56
2022-09-15T09:40:07.682Z,97706.72
2022-09-15T09:41:39.266Z,97707.41
2022-09-15T09:43:10.821Z,97716.44
2022-09-15T09:44:42.371Z,97695.94
2022-09-15T09:46:15.029Z,97708.38
2022-09-15T09:47:46.631Z,97709.06
2022-09-15T09:49:23.004Z,97704.41
2022-09-15T09:50:54.560Z,97693.88
2022-09-15T09:52:36.207Z,97688.50
2022-09-15T09:54:12.518Z,97694.59
2022-09-15T09:55:44.077Z,97694.59
2022-09-15T09:57:30.655Z,97684.03
2022-09-15T09:59:02.259Z,97677.44
2022-09-15T10:00:38.195Z,97676.69
2022-09-15T10:02:12.336Z,97671.31
2022-09-15T10:03:44.004Z,97665.38
2022-09-15T10:05:19.476Z,97663.97
2022-09-15T10:06:51.022Z,97664.88
2022-09-15T10:08:22.606Z,97648.19
2022-09-15T10:09:58.222Z,97655.25
2022-09-15T10:11:46.447Z,97657.22
2022-09-15T10:13:17.997Z,97665.09
2022-09-15T10:14:52.409Z,97665.63
2022-09-15T10:16:24.193Z,97661.97
2022-09-15T10:17:56.155Z,97663.44
2022-09-15T10:19:28.502Z,97665.63
2022-09-15T10:21:04.182Z,97652.47
2022-09-15T10:22:37.318Z,97677.09
2022-09-15T10:24:25.031Z,97673.16
2022-09-15T10:26:15.031Z,97679.28
2022-09-15T10:28:02.931Z,97679.28
2022-09-15T10:29:38.190Z,97673.16
2022-09-15T10:31:13.605Z,97693.47
2022-09-15T10:32:45.351Z,97684.13
2022-09-15T10:34:28.314Z,97692.22
2022-09-15T10:36:03.825Z,97702.28
2022-09-15T10:37:57.119Z,97703.72
2022-09-15T10:39:49.569Z,97701.75
2022-09-15T10:41:30.286Z,97688.50
2022-09-15T10:43:29.282Z,97690.47
2022-09-15T10:45:13.034Z,97685.09
2022-09-15T10:47:05.990Z,97689.00
2022-09-15T10:48:42.934Z,97686.03
2022-09-15T10:50:14.383Z,97695.53
2022-09-15T10:51:52.003Z,97686.94
2022-09-15T10:53:55.579Z,97688.19
2022-09-15T10:55:52.638Z,97677.94
2022-09-15T10:57:34.631Z,97684.75
2022-09-15T10:59:18.187Z,97684.06
2022-09-15T11:01:01.917Z,97686.94
2022-09-15T11:02:57.584Z,97694.81
2022-09-15T11:04:52.827Z,97691.59
2022-09-15T11:07:13.804Z,97661.47
2022-09-15T11:08:53.942Z,97679.59
2022-09-15T11:10:42.570Z,97677.41
2022-09-15T11:12:38.589Z,97683.31
2022-09-15T11:14:34.663Z,97680.63
2022-09-15T11:16:47.904Z,97682.59
2022-09-15T11:18:23.634Z,97685.09
2022-09-15T11:20:20.964Z,97675.56
2022-09-15T11:22:03.569Z,97672.13
2022-09-15T11:23:46.420Z,97663.84
2022-09-15T11:25:26.197Z,97678.75
2022-09-15T11:27:36.386Z,97675.34
2022-09-15T11:29:27.109Z,97667.91
2022-09-15T11:31:18.853Z,97671.09
2022-09-15T11:33:19.625Z,97675.25
2022-09-15T11:35:32.604Z,97664.47
2022-09-15T11:37:10.998Z,97667.47
2022-09-15T11:39:06.370Z,97638.59
2022-09-15T11:40:39.353Z,97659.91
2022-09-15T11:42:18.793Z,97649.13
2022-09-15T11:44:07.313Z,97663.84
2022-09-15T11:45:42.366Z,97674.63
2022-09-15T11:47:19.810Z,97651.13
2022-09-15T11:49:13.654Z,97660.75
2022-09-15T11:50:45.907Z,97654.84
2022-09-15T11:52:54.711Z,97655.56
2022-09-15T11:54:34.938Z,97654.13
2022-09-15T11:56:22.725Z,97653.59
2022-09-15T11:58:06.894Z,97653.59
2022-09-15T12:00:05.760Z,97648.72
2022-09-15T12:01:51.626Z,97655.34
2022-09-15T12:03:28.688Z,97647.28
2022-09-15T12:05:11.461Z,97652.66
2022-09-15T12:07:11.104Z,97635.34
2022-09-15T12:08:57.840Z,97641.47
2022-09-15T12:10:31.284Z,97636.31
2022-09-15T12:12:08.531Z,97642.91
2022-09-15T12:13:40.258Z,97645.13
2022-09-15T12:15:16.392Z,97639.00
2022-09-15T12:16:47.996Z,97641.69
2022-09-15T12:18:44.834Z,97640.44
2022-09-15T12:20:32.205Z,97636.81
2022-09-15T12:22:06.268Z,97629.97
2022-09-15T12:23:44.861Z,97640.03
2022-09-15T12:25:28.892Z,97634.66
2022-09-15T12:27:01.080Z,97634.84
2022-09-15T12:28:39.572Z,97633.38
2022-09-15T12:30:38.166Z,97638.47
2022-09-15T12:32:28.811Z,97627.19
2022-09-15T12:34:25.413Z,97627.19
2022-09-15T12:35:56.989Z,97620.66
2022-09-15T12:37:45.963Z,97623.78
2022-09-15T12:39:21.638Z,97614.22
2022-09-15T12:40:59.210Z,97614.78
2022-09-15T12:42:31.134Z,97628.63
2022-09-15T12:44:13.902Z,97618.28
2022-09-15T12:46:15.710Z,97617.25
2022-09-15T12:48:04.569Z,97618.47
2022-09-15T12:49:42.435Z,97617.78
2022-09-15T12:51:22.529Z,97611.84
2022-09-15T12:53:04.250Z,97615.28
2022-09-15T12:54:37.114Z,97617.25
2022-09-15T12:56:09.818Z,97621.16
2022-09-15T12:57:41.375Z,97609.69
2022-09-15T12:59:13.302Z,97604.31
2022-09-15T13:01:13.988Z,97600.34
2022-09-15T13:02:46.756Z,97602.13
2022-09-15T13:04:43.142Z,97591.03
2022-09-15T13:06:27.725Z,97584.41
2022-09-15T13:07:59.288Z,97580.28
2022-09-15T13:09:30.822Z,97577.03
2022-09-15T13:11:27.619Z,97575.59
2022-09-15T13:13:34.668Z,97577.25
2022-09-15T13:15:07.364Z,97573.13
2022-09-15T13:16:53.942Z,97566.28
2022-09-15T13:18:25.576Z,97575.06
2022-09-15T13:19:58.679Z,97562.34
2022-09-15T13:21:30.251Z,97565.22
2022-09-15T13:23:01.793Z,97550.53
2022-09-15T13:25:02.157Z,97550.22
2022-09-15T13:26:33.819Z,97545.03
2022-09-15T13:28:05.427Z,97543.59
2022-09-15T13:29:49.511Z,97539.44
2022-09-15T13:31:33.656Z,97549.50
2022-09-15T13:33:22.410Z,97558.28
2022-09-15T13:35:20.525Z,97555.41
2022-09-15T13:39:35.145Z,97564.72
2022-09-15T13:41:09.653Z,97565.97
2022-09-15T13:43:15.090Z,97573.13
2022-09-15T13:45:01.840Z,97572.38
2022-09-15T13:47:01.087Z,97567.00
2022-09-15T13:48:32.529Z,97564.31
2022-09-15T13:50:37.024Z,97567.72
2022-09-15T13:52:17.489Z,97573.84
2022-09-15T13:53:55.884Z,97573.31
2022-09-15T13:55:28.549Z,97569.38
2022-09-15T13:57:00.464Z,97575.19
2022-09-15T14:00:25.455Z,97559.63
2022-09-15T14:01:57.638Z,97562.97
2022-09-15T14:04:01.110Z,97552.56
2022-09-15T14:05:33.889Z,97569.69
2022-09-15T14:07:05.490Z,97558.38
2022-09-15T14:08:37.187Z,97555.88
2022-09-15T14:10:21.113Z,97565.59
2022-09-15T14:11:54.804Z,97562.91
2022-09-15T14:13:26.646Z,97554.81
2022-09-15T14:14:58.206Z,97561.16
2022-09-15T14:16:38.959Z,97561.34
2022-09-15T14:18:19.856Z,97566.22
2022-09-15T14:19:52.962Z,97567.25
2022-09-15T14:21:32.825Z,97568.19
2022-09-15T14:23:15.396Z,97555.97
2022-09-15T14:24:47.119Z,97557.94
2022-09-15T14:26:20.114Z,97548.38
2022-09-15T14:27:53.397Z,97561.34
2022-09-15T14:29:24.973Z,97561.34
2022-09-15T14:30:56.520Z,97556.16
2022-09-15T14:32:28.255Z,97552.72
2022-09-15T14:34:00.768Z,97565.81
2022-09-15T14:35:38.257Z,97569.94
2022-09-15T14:37:29.039Z,97564.16
2022-09-15T14:39:12.536Z,97575.69
2022-09-15T14:40:44.140Z,97571.53
2022-09-15T14:42:26.436Z,97572.75
2022-09-15T14:43:58.036Z,97572.56
2022-09-15T14:47:31.836Z,97568.41
2022-09-15T14:49:13.467Z,97561.78
2022-09-15T14:50:45.633Z,97567.91
2022-09-15T14:52:28.430Z,97555.88
2022-09-15T14:54:00.049Z,97567.38
2022-09-15T14:56:01.313Z,97574.94
2022-09-15T14:57:36.195Z,97571.22
2022-09-15T14:59:11.249Z,97575.34
2022-09-15T15:00:56.914Z,97579.47
2022-09-15T15:02:44.597Z,97573.91
2022-09-15T15:04:38.245Z,97580.53
2022-09-15T15:06:34.859Z,97579.06
2022-09-15T15:08:07.397Z,97590.38
2022-09-15T15:09:46.296Z,97599.19
2022-09-15T15:11:18.206Z,97597.53
2022-09-15T15:12:51.035Z,97597.84
2022-09-15T15:15:59.084Z,97611.66
2022-09-15T15:17:35.858Z,97615.56
2022-09-15T15:19:32.896Z,97627.38
2022-09-15T15:21:05.669Z,97617.16
2022-09-15T15:22:37.674Z,97613.50
2022-09-15T15:24:19.979Z,97617.44
2022-09-15T15:25:51.956Z,97609.16
2022-09-15T15:27:25.337Z,97615.06
2022-09-15T15:28:56.988Z,97612.88
2022-09-15T15:30:28.419Z,97594.75
2022-09-15T15:32:09.969Z,97603.34
2022-09-15T15:33:54.479Z,97600.25
2022-09-15T15:35:26.071Z,97610.50
2022-09-15T15:37:04.111Z,97606.88
2022-09-15T15:38:36.779Z,97606.34
2022-09-15T15:40:14.477Z,97599.13
2022-09-15T15:41:46.136Z,97609.78
2022-09-15T15:43:24.179Z,97607.28
2022-09-15T15:45:00.607Z,97601.50
2022-09-15T15:46:59.119Z,97605.84
2022-09-15T15:48:35.415Z,97603.16
2022-09-15T15:50:14.650Z,97605.13
2022-09-15T15:51:46.338Z,97608.31
2022-09-15T15:53:17.963Z,97617.13
2022-09-15T15:54:49.515Z,97620.34
2022-09-15T15:56:22.919Z,97639.19
2022-09-15T15:57:54.818Z,97637.00
2022-09-15T15:59:26.391Z,97649.75
2022-09-15T16:00:58.067Z,97654.94
2022-09-15T16:02:29.676Z,97654.22
2022-09-15T16:04:01.257Z,97668.19
2022-09-15T16:05:32.946Z,97666.75
2022-09-15T16:07:07.339Z,97667.97
2022-09-15T16:08:39.363Z,97670.66
2022-09-15T16:10:14.719Z,97669.25
2022-09-15T16:11:46.357Z,97662.41
2022-09-15T16:13:18.798Z,97671.69
2022-09-15T16:14:50.422Z,97662.19
2022-09-15T16:16:23.815Z,97659.50
2022-09-15T16:17:55.461Z,97669.34
2022-09-15T16:19:27.025Z,97665.91
2022-09-15T16:20:58.607Z,97673.28
2022-09-15T16:22:30.149Z,97666.44
2022-09-15T16:24:01.879Z,97673.03
2022-09-15T16:25:42.499Z,97666.97
2022-09-15T16:27:15.086Z,97678.22
2022-09-15T16:28:46.628Z,97674.81
2022-09-15T16:30:18.205Z,97674.06
2022-09-15T16:31:49.950Z,97671.91
2022-09-15T16:33:21.584Z,97661.16
2022-09-15T16:34:53.221Z,97658.44
2022-09-15T16:36:25.284Z,97650.69
2022-09-15T16:37:56.830Z,97658.97
2022-09-15T16:39:28.442Z,97663.63
2022-09-15T16:41:00.264Z,97671.00
2022-09-15T16:42:31.851Z,97672.22
2022-09-15T16:44:03.721Z,97681.03
2022-09-15T16:45:39.771Z,97679.56
2022-09-15T16:47:12.625Z,97682.25
2022-09-15T16:48:44.262Z,97687.63
2022-09-15T16:50:15.845Z,97689.59
2022-09-15T16:51:47.393Z,97691.59
2022-09-15T16:53:20.863Z,97701.63
2022-09-15T16:54:52.485Z,97704.31
2022-09-15T16:56:24.031Z,97704.81
2022-09-15T16:57:55.612Z,97704.81
2022-09-15T16:59:27.147Z,97712.91
2022-09-15T17:00:58.825Z,97724.91
2022-09-15T17:02:30.394Z,97728.84
2022-09-15T17:04:02.348Z,97722.72
2022-09-15T17:05:48.275Z,97727.38
2022-09-15T17:07:20.197Z,97721.78
2022-09-15T17:08:51.904Z,97721.78
2022-09-15T17:10:23.821Z,97732.56
2022-09-15T17:11:55.724Z,97728.38
2022-09-15T17:13:30.335Z,97732.34
2022-09-15T17:15:02.256Z,97726.94
2022-09-15T17:16:33.830Z,97726.22
2022-09-15T17:18:06.142Z,97722.59
2022-09-15T17:19:37.740Z,97728.19
2022-09-15T17:21:12.631Z,97726.00
2022-09-15T17:22:44.301Z,97724.56
2022-09-15T17:24:15.866Z,97728.69
2022-09-15T17:25:47.765Z,97727.25
2022-09-15T17:27:19.358Z,97737.28
2022-09-15T17:28:50.955Z,97733.84
2022-09-15T17:30:23.819Z,97730.44
2022-09-15T17:31:55.569Z,97735.81
2022-09-15T17:33:27.650Z,97731.69
2022-09-15T17:34:59.580Z,97730.97
2022-09-15T17:36:31.558Z,97731.69
2022-09-15T17:38:04.570Z,97728.28
2022-09-15T17:39:36.204Z,97727.53
2022-09-15T17:41:20.231Z,97726.81
2022-09-15T17:42:51.793Z,97732.72
2022-09-15T17:44:23.315Z,97731.47
2022-09-15T17:45:54.917Z,97720.25
2022-09-15T17:47:26.455Z,97728.78
2022-09-15T17:48:58.026Z,97721.97
2022-09-15T17:50:30.469Z,97719.28
2022-09-15T17:52:02.251Z,97716.56
2022-09-15T17:53:33.999Z,97719.78
2022-09-15T17:55:29.149Z,97729.81
2022-09-15T17:57:00.722Z,97710.97
2022-09-15T17:58:32.424Z,97716.34
2022-09-15T18:00:04.682Z,97721.28
2022-09-15T18:01:36.393Z,97727.13
2022-09-15T18:03:26.164Z,97737.16
2022-09-15T18:04:57.998Z,97730.31
2022-09-15T18:06:29.853Z,97721.53
2022-09-15T18:08:04.052Z,97713.44
2022-09-15T18:09:35.776Z,97700.00
2022-09-15T18:11:07.766Z,97698.75
2022-09-15T18:12:41.804Z,97685.50
2022-09-15T18:14:16.038Z,97692.44
2022-09-15T18:15:48.049Z,97696.16
2022-09-15T18:17:19.975Z,97705.78
2022-09-15T18:18:51.892Z,97707.81
2022-09-15T18:20:25.980Z,97708.13
2022-09-15T18:21:57.934Z,97701.06
2022-09-15T18:23:29.890Z,97699.69
2022-09-15T18:25:01.922Z,97700.72
2022-09-15T18:26:33.845Z,97697.06
2022-09-15T18:28:05.761Z,97707.38
2022-09-15T18:29:37.692Z,97708.63
2022-09-15T18:31:10.697Z,97706.22
2022-09-15T18:32:42.820Z,97719.63
2022-09-15T18:34:14.801Z,97719.66
2022-09-15T18:35:47.517Z,97716.84
2022-09-15T18:37:19.133Z,97713.72
2022-09-15T18:38:51.001Z,97719.16
2022-09-15T18:40:23.136Z,97716.50
2022-09-15T18:41:55.138Z,97727.97
2022-09-15T18:43:27.773Z,97729.44
2022-09-15T18:44:59.431Z,97730.19
2022-09-15T18:46:31.229Z,97736.97
2022-09-15T18:48:02.854Z,97733.81
2022-09-15T18:49:35.026Z,97726.25
2022-09-15T18:51:10.825Z,97736.28
2022-09-15T18:52:43.653Z,97734.09
2022-09-15T18:54:15.506Z,97735.09
2022-09-15T18:55:47.309Z,97730.94
2022-09-15T18:57:21.874Z,97734.38
2022-09-15T18:58:54.078Z,97734.38
2022-09-15T19:00:26.020Z,97724.34
2022-09-15T19:01:58.160Z,97719.72
2022-09-15T19:03:30.208Z,97717.50
2022-09-15T19:05:01.811Z,97725.59
2022-09-15T19:06:33.805Z,97728.25
2022-09-15T19:08:05.725Z,97731.97
2022-09-15T19:09:37.725Z,97735.19
2022-09-15T19:11:12.574Z,97741.28
2022-09-15T19:12:44.494Z,97747.88
2022-09-15T19:14:16.431Z,97748.38
2022-09-15T19:15:52.809Z,97747.88
2022-09-15T19:17:25.304Z,97755.41
2022-09-15T19:18:57.239Z,97746.66
2022-09-15T19:20:29.114Z,97770.84
2022-09-15T19:22:01.032Z,97761.53
2022-09-15T19:23:32.889Z,97757.16
2022-09-15T19:25:05.539Z,97768.38
2022-09-15T19:26:37.230Z,97766.91
2022-09-15T19:28:09.496Z,97779.38
2022-09-15T19:29:41.356Z,97775.47
2022-09-15T19:31:13.149Z,97785.50
2022-09-15T19:32:44.969Z,97789.66
2022-09-15T19:34:16.582Z,97777.44
2022-09-15T19:35:53.348Z,97794.06
2022-09-15T19:37:37.628Z,97778.22
2022-09-15T19:39:11.553Z,97786.28
2022-09-15T19:40:43.297Z,97788.25
2022-09-15T19:43:51.990Z,97789.75
2022-09-15T19:45:23.614Z,97784.59
2022-09-15T19:46:55.278Z,97790.41
2022-09-15T19:48:27.224Z,97776.22
2022-09-15T19:49:59.153Z,97779.84
2022-09-15T19:51:30.900Z,97784.41
2022-09-15T19:53:02.563Z,97774.63
2022-09-15T19:54:34.173Z,97781.19
2022-09-15T19:56:06.194Z,97774.81
2022-09-15T19:57:39.244Z,97773.06
2022-09-15T19:59:10.885Z,97772.78
2022-09-15T20:00:42.530Z,97776.94
2022-09-15T20:02:14.127Z,97781.78
2022-09-15T20:05:35.033Z,97775.41
2022-09-15T20:07:06.612Z,97768.28
2022-09-15T20:08:38.133Z,97770.47
2022-09-15T20:10:09.691Z,97767.28
2022-09-15T20:11:41.205Z,97782.16
2022-09-15T20:13:13.042Z,97785.59
2022-09-15T20:14:44.578Z,97788.50
2022-09-15T20:16:18.328Z,97783.13
2022-09-15T20:17:49.862Z,97779.19
2022-09-15T20:19:21.553Z,97794.09
2022-09-15T20:20:53.465Z,97791.41
2022-09-15T20:22:24.985Z,97789.44
2022-09-15T20:23:56.627Z,97773.31
2022-09-15T20:25:28.258Z,97789.66
2022-09-15T20:26:59.805Z,97783.53
2022-09-15T20:28:31.371Z,97787.69
2022-09-15T20:30:03.145Z,97785.00
2022-09-15T20:31:34.664Z,97799.19
2022-09-15T20:33:06.192Z,97802.59
2022-09-15T20:34:37.772Z,97812.09
2022-09-15T20:36:11.593Z,97819.69
2022-09-15T20:37:43.200Z,97825.56
2022-09-15T20:39:15.143Z,97819.69
2022-09-15T20:40:46.702Z,97825.06
2022-09-15T20:42:18.261Z,97825.78
2022-09-15T20:43:49.909Z,97833.34
2022-09-15T20:45:21.541Z,97844.09
2022-09-15T20:46:53.441Z,97836.75
2022-09-15T20:48:25.826Z,97844.84
2022-09-15T20:49:57.376Z,97842.88
2022-09-15T20:51:29.413Z,97846.28
2022-09-15T20:53:00.965Z,97845.56
2022-09-15T20:54:32.882Z,97850.94
2022-09-15T20:56:04.518Z,97842.88
2022-09-15T20:57:36.151Z,97848.97
2022-09-15T20:59:07.718Z,97848.97
2022-09-15T21:00:39.291Z,97858.28
2022-09-15T21:02:10.869Z,97866.56
2022-09-15T21:03:43.141Z,97871.94
2022-09-15T21:05:14.790Z,97869.97
2022-09-15T21:06:46.367Z,97878.78
2022-09-15T21:08:17.900Z,97883.44
2022-09-15T21:09:49.507Z,97889.53
2022-09-15T21:11:21.200Z,97888.06
2022-09-15T21:12:52.803Z,97895.66
2022-09-15T21:14:24.360Z,97894.91
2022-09-15T21:15:57.021Z,97897.59
2022-09-15T21:17:28.566Z,97900.28
2022-09-15T21:19:00.134Z,97909.81
2022-09-15T21:20:31.749Z,97914.47
2022-09-15T21:22:03.329Z,97911.78
2022-09-15T21:23:36.640Z,97919.34
2022-09-15T21:25:08.243Z,97919.34
2022-09-15T21:26:40.991Z,97914.25
2022-09-15T21:28:12.526Z,97924.72
2022-09-15T21:29:44.152Z,97932.78
2022-09-15T21:31:20.123Z,97935.47
2022-09-15T21:32:51.742Z,97948.91
2022-09-15T21:34:23.396Z,97941.38
2022-09-15T21:36:08.395Z,97946.22
2022-09-15T21:37:39.959Z,97949.66
2022-09-15T21:39:11.541Z,97952.34
2022-09-15T21:40:48.687Z,97959.69
2022-09-15T21:42:20.254Z,97974.59
2022-09-15T21:43:52.597Z,97968.47
2022-09-15T21:45:24.187Z,97968.47
2022-09-15T21:46:56.137Z,97961.16
2022-09-15T21:48:27.678Z,97971.16
2022-09-15T21:49:59.308Z,97965.06
2022-09-15T21:51:30.878Z,97971.91
2022-09-15T21:53:02.501Z,97963.84
2022-09-15T21:54:34.040Z,97966.31
2022-09-15T21:56:06.463Z,97972.63
2022-09-15T21:57:38.036Z,97978.50
2022-09-15T21:59:10.361Z,97975.81
2022-09-15T22:00:41.987Z,97973.84
2022-09-15T22:02:13.743Z,97979.97
2022-09-15T22:03:49.931Z,97979.97
2022-09-15T22:05:21.431Z,97979.97
2022-09-15T22:06:53.000Z,97979.97
2022-09-15T22:08:24.603Z,97987.31
2022-09-15T22:09:56.317Z,97985.34
2022-09-15T22:11:28.256Z,97993.41
2022-09-15T22:12:59.961Z,97992.69
2022-09-15T22:14:31.555Z,97984.63
2022-09-15T22:16:04.729Z,97988.03
2022-09-15T22:17:36.330Z,97988.03
2022-09-15T22:19:08.427Z,97985.34
2022-09-15T22:20:40.048Z,97985.34
2022-09-15T22:22:11.675Z,97985.34
2022-09-15T22:23:43.491Z,97986.09
2022-09-15T22:25:19.780Z,97999.53
2022-09-15T22:26:53.285Z,98004.91
2022-09-15T22:28:24.867Z,98001.50
2022-09-15T22:29:56.412Z,98007.09
2022-09-15T22:31:28.367Z,98006.38
2022-09-15T22:32:59.970Z,98002.22
2022-09-15T22:34:31.600Z,98002.22
2022-09-15T22:36:03.470Z,98003.44
2022-09-15T22:37:35.265Z,97999.53
2022-09-15T22:39:06.813Z,98012.97
2022-09-15T22:40:38.410Z,98021.78
2022-09-15T22:42:10.214Z,98021.53
2022-09-15T22:43:42.646Z,98011.53
2022-09-15T22:45:14.228Z,98014.94
2022-09-15T22:46:45.882Z,98014.22
2022-09-15T22:48:17.494Z,98022.28
2022-09-15T22:49:49.068Z,98019.59
2022-09-15T22:51:20.721Z,98018.38
2022-09-15T22:52:52.261Z,98023.00
2022-09-15T22:54:23.903Z,98026.91
2022-09-15T22:56:04.763Z,98038.41
2022-09-15T22:57:36.372Z,98039.66
2022-09-15T22:59:07.909Z,98044.31
2022-09-15T23:00:39.509Z,98047.72
2022-09-15T23:02:11.220Z,98055.28
2022-09-15T23:03:43.165Z,98055.56
2022-09-15T23:05:14.778Z,98065.81
2022-09-15T23:06:46.420Z,98059.94
2022-09-15T23:08:18.064Z,98055.81
2022-09-15T23:09:49.611Z,98060.44
2022-09-15T23:11:21.298Z,98058.50
2022-09-15T23:12:52.997Z,98057.75
2022-09-15T23:14:24.668Z,98059.94
2022-09-15T23:15:56.265Z,98067.78
2022-09-15T23:17:27.962Z,98063.88
2022-09-15T23:18:59.557Z,98065.09
2022-09-15T23:20:31.128Z,98069.25
2022-09-15T23:22:02.673Z,98064.56
2022-09-15T23:23:35.107Z,98073.91
2022-09-15T23:25:06.947Z,98065.81
2022-09-15T23:26:38.539Z,98064.56
2022-09-15T23:28:10.086Z,98069.97
2022-09-15T23:29:41.656Z,98069.97
2022-09-15T23:31:13.876Z,98070.69
2022-09-15T23:32:45.521Z,98075.34
2022-09-15T23:34:17.121Z,98069.97
2022-09-15T23:35:48.811Z,98078.03
2022-09-15T23:37:20.369Z,98074.63
2022-09-15T23:38:52.023Z,98075.34
2022-09-15T23:40:23.626Z,98071.94
2022-09-15T23:41:55.363Z,98075.34
2022-09-15T23:43:26.913Z,98068.53
2022-09-15T23:44:58.462Z,98060.44
2022-09-15T23:46:30.084Z,98068.53
2022-09-15T23:48:03.492Z,98063.13
2022-09-15T23:49:35.055Z,98057.03
2022-09-15T23:51:06.739Z,98067.78
2022-09-15T23:52:38.377Z,98064.56
2022-09-15T23:54:09.933Z,98067.06
2022-09-15T23:55:41.495Z,98071.22
2022-09-15T23:57:13.030Z,98073.91
2022-09-15T23:58:44.662Z,98071.22
